sensor_id;sensor_type;location;lat;lon;timestamp;temperature;humidity
11089;DHT22;5598;48.648;8.908;2023-04-03T00:00:40;4.20;99.90
11089;DHT22;5598;48.648;8.908;2023-04-03T00:03:07;4.20;99.90
11089;DHT22;5598;48.648;8.908;2023-04-03T00:05:33;4.10;99.90
11089;DHT22;5598;48.648;8.908;2023-04-03T00:08:00;4.00;99.90
11089;DHT22;5598;48.648;8.908;2023-04-03T00:10:28;4.00;99.90
11089;DHT22;5598;48.648;8.908;2023-04-03T00:12:57;4.00;99.90
11089;DHT22;5598;48.648;8.908;2023-04-03T00:15:23;3.90;99.90
11089;DHT22;5598;48.648;8.908;2023-04-03T00:17:50;3.80;99.90
11089;DHT22;5598;48.648;8.908;2023-04-03T00:20:17;3.70;99.90
11089;DHT22;5598;48.648;8.908;2023-04-03T00:22:44;3.70;99.90
11089;DHT22;5598;48.648;8.908;2023-04-03T00:25:11;3.70;99.90
11089;DHT22;5598;48.648;8.908;2023-04-03T00:27:38;3.70;99.90
11089;DHT22;5598;48.648;8.908;2023-04-03T00:30:08;3.70;99.90
11089;DHT22;5598;48.648;8.908;2023-04-03T00:32:36;3.70;99.90
11089;DHT22;5598;48.648;8.908;2023-04-03T00:35:03;3.70;99.90
11089;DHT22;5598;48.648;8.908;2023-04-03T00:37:30;3.60;99.90
11089;DHT22;5598;48.648;8.908;2023-04-03T00:39:57;3.60;99.90
11089;DHT22;5598;48.648;8.908;2023-04-03T00:42:24;3.50;99.90
11089;DHT22;5598;48.648;8.908;2023-04-03T00:45:35;3.50;99.90
11089;DHT22;5598;48.648;8.908;2023-04-03T00:48:04;3.40;99.90
11089;DHT22;5598;48.648;8.908;2023-04-03T00:50:34;3.40;99.90
11089;DHT22;5598;48.648;8.908;2023-04-03T00:53:02;3.40;99.90
11089;DHT22;5598;48.648;8.908;2023-04-03T00:55:30;3.40;99.90
11089;DHT22;5598;48.648;8.908;2023-04-03T00:57:57;3.40;99.90
11089;DHT22;5598;48.648;8.908;2023-04-03T01:00:24;3.40;99.90
11089;DHT22;5598;48.648;8.908;2023-04-03T01:02:53;3.40;99.90
11089;DHT22;5598;48.648;8.908;2023-04-03T01:05:21;3.50;99.90
11089;DHT22;5598;48.648;8.908;2023-04-03T01:07:49;3.50;99.90
11089;DHT22;5598;48.648;8.908;2023-04-03T01:10:17;3.40;99.90
11089;DHT22;5598;48.648;8.908;2023-04-03T01:12:46;3.40;99.90
11089;DHT22;5598;48.648;8.908;2023-04-03T01:15:16;3.40;99.90
11089;DHT22;5598;48.648;8.908;2023-04-03T01:17:45;3.40;99.90
11089;DHT22;5598;48.648;8.908;2023-04-03T01:20:42;3.40;99.90
11089;DHT22;5598;48.648;8.908;2023-04-03T01:23:22;3.40;99.90
11089;DHT22;5598;48.648;8.908;2023-04-03T01:25:52;3.40;99.90
11089;DHT22;5598;48.648;8.908;2023-04-03T01:28:23;3.40;99.90
11089;DHT22;5598;48.648;8.908;2023-04-03T01:30:53;3.40;99.90
11089;DHT22;5598;48.648;8.908;2023-04-03T01:33:23;3.40;99.90
11089;DHT22;5598;48.648;8.908;2023-04-03T01:35:50;3.50;99.90
11089;DHT22;5598;48.648;8.908;2023-04-03T01:38:16;3.40;99.90
11089;DHT22;5598;48.648;8.908;2023-04-03T01:40:43;3.40;99.90
11089;DHT22;5598;48.648;8.908;2023-04-03T01:43:10;3.30;99.90
11089;DHT22;5598;48.648;8.908;2023-04-03T01:45:37;3.30;99.90
11089;DHT22;5598;48.648;8.908;2023-04-03T01:48:04;3.30;99.90
11089;DHT22;5598;48.648;8.908;2023-04-03T01:50:33;3.20;99.90
11089;DHT22;5598;48.648;8.908;2023-04-03T01:53:00;3.20;99.90
11089;DHT22;5598;48.648;8.908;2023-04-03T01:55:27;3.10;99.90
11089;DHT22;5598;48.648;8.908;2023-04-03T01:57:54;3.10;99.90
11089;DHT22;5598;48.648;8.908;2023-04-03T02:00:21;3.00;99.90
11089;DHT22;5598;48.648;8.908;2023-04-03T02:02:47;3.00;99.90
11089;DHT22;5598;48.648;8.908;2023-04-03T02:05:15;3.00;99.90
11089;DHT22;5598;48.648;8.908;2023-04-03T02:07:43;3.00;99.90
11089;DHT22;5598;48.648;8.908;2023-04-03T02:10:10;2.90;99.90
11089;DHT22;5598;48.648;8.908;2023-04-03T02:12:36;2.90;99.90
11089;DHT22;5598;48.648;8.908;2023-04-03T02:15:04;2.90;99.90
11089;DHT22;5598;48.648;8.908;2023-04-03T02:17:31;2.90;99.90
11089;DHT22;5598;48.648;8.908;2023-04-03T02:19:58;2.90;99.90
11089;DHT22;5598;48.648;8.908;2023-04-03T02:22:25;2.80;99.90
11089;DHT22;5598;48.648;8.908;2023-04-03T02:24:53;2.70;99.90
11089;DHT22;5598;48.648;8.908;2023-04-03T02:27:23;2.70;99.90
11089;DHT22;5598;48.648;8.908;2023-04-03T02:29:50;2.80;99.90
11089;DHT22;5598;48.648;8.908;2023-04-03T02:32:16;2.90;99.90
11089;DHT22;5598;48.648;8.908;2023-04-03T02:34:43;2.90;99.90
11089;DHT22;5598;48.648;8.908;2023-04-03T02:37:10;2.90;99.90
11089;DHT22;5598;48.648;8.908;2023-04-03T02:39:37;2.80;99.90
11089;DHT22;5598;48.648;8.908;2023-04-03T02:42:05;2.80;99.90
11089;DHT22;5598;48.648;8.908;2023-04-03T02:44:32;2.90;99.90
11089;DHT22;5598;48.648;8.908;2023-04-03T02:46:59;2.90;99.90
11089;DHT22;5598;48.648;8.908;2023-04-03T02:49:26;2.90;99.90
11089;DHT22;5598;48.648;8.908;2023-04-03T02:51:53;2.90;99.90
11089;DHT22;5598;48.648;8.908;2023-04-03T02:54:19;2.90;99.90
11089;DHT22;5598;48.648;8.908;2023-04-03T02:56:49;2.90;99.90
11089;DHT22;5598;48.648;8.908;2023-04-03T02:59:18;2.90;99.90
11089;DHT22;5598;48.648;8.908;2023-04-03T03:01:45;3.00;99.90
11089;DHT22;5598;48.648;8.908;2023-04-03T03:04:12;3.00;99.90
11089;DHT22;5598;48.648;8.908;2023-04-03T03:06:38;3.00;99.90
11089;DHT22;5598;48.648;8.908;2023-04-03T03:09:06;3.00;99.90
11089;DHT22;5598;48.648;8.908;2023-04-03T03:11:32;3.10;99.90
11089;DHT22;5598;48.648;8.908;2023-04-03T03:13:59;3.10;99.90
11089;DHT22;5598;48.648;8.908;2023-04-03T03:16:27;3.10;99.90
11089;DHT22;5598;48.648;8.908;2023-04-03T03:18:54;3.10;99.90
11089;DHT22;5598;48.648;8.908;2023-04-03T03:21:21;3.00;99.90
11089;DHT22;5598;48.648;8.908;2023-04-03T03:23:48;3.00;99.90
11089;DHT22;5598;48.648;8.908;2023-04-03T03:26:14;3.00;99.90
11089;DHT22;5598;48.648;8.908;2023-04-03T03:28:41;2.90;99.90
11089;DHT22;5598;48.648;8.908;2023-04-03T03:31:09;2.90;99.90
11089;DHT22;5598;48.648;8.908;2023-04-03T03:33:37;2.80;99.90
11089;DHT22;5598;48.648;8.908;2023-04-03T03:36:05;2.70;99.90
11089;DHT22;5598;48.648;8.908;2023-04-03T03:38:32;2.70;99.90
11089;DHT22;5598;48.648;8.908;2023-04-03T03:40:58;2.70;99.90
11089;DHT22;5598;48.648;8.908;2023-04-03T03:43:25;2.70;99.90
11089;DHT22;5598;48.648;8.908;2023-04-03T03:45:53;2.70;99.90
11089;DHT22;5598;48.648;8.908;2023-04-03T03:48:20;2.70;99.90
11089;DHT22;5598;48.648;8.908;2023-04-03T03:50:49;2.70;99.90
11089;DHT22;5598;48.648;8.908;2023-04-03T03:53:16;2.70;99.90
11089;DHT22;5598;48.648;8.908;2023-04-03T03:55:43;2.80;99.90
11089;DHT22;5598;48.648;8.908;2023-04-03T03:58:10;2.70;99.90
11089;DHT22;5598;48.648;8.908;2023-04-03T04:00:37;2.70;99.90
11089;DHT22;5598;48.648;8.908;2023-04-03T04:03:03;2.70;99.90
11089;DHT22;5598;48.648;8.908;2023-04-03T04:05:30;2.70;99.90
11089;DHT22;5598;48.648;8.908;2023-04-03T04:07:59;2.80;99.90
11089;DHT22;5598;48.648;8.908;2023-04-03T04:10:25;2.80;99.90
11089;DHT22;5598;48.648;8.908;2023-04-03T04:12:52;2.80;99.90
11089;DHT22;5598;48.648;8.908;2023-04-03T04:15:19;2.70;99.90
11089;DHT22;5598;48.648;8.908;2023-04-03T04:17:47;2.70;99.90
11089;DHT22;5598;48.648;8.908;2023-04-03T04:20:14;2.60;99.90
11089;DHT22;5598;48.648;8.908;2023-04-03T04:22:40;2.60;99.90
11089;DHT22;5598;48.648;8.908;2023-04-03T04:25:09;2.50;99.90
11089;DHT22;5598;48.648;8.908;2023-04-03T04:27:36;2.50;99.90
11089;DHT22;5598;48.648;8.908;2023-04-03T04:30:04;2.50;99.90
11089;DHT22;5598;48.648;8.908;2023-04-03T04:32:31;2.50;99.90
11089;DHT22;5598;48.648;8.908;2023-04-03T04:34:58;2.50;99.90
11089;DHT22;5598;48.648;8.908;2023-04-03T04:37:25;2.60;99.90
11089;DHT22;5598;48.648;8.908;2023-04-03T04:39:51;2.50;99.90
11089;DHT22;5598;48.648;8.908;2023-04-03T04:42:20;2.60;99.90
11089;DHT22;5598;48.648;8.908;2023-04-03T04:44:46;2.50;99.90
11089;DHT22;5598;48.648;8.908;2023-04-03T04:47:13;2.60;99.90
11089;DHT22;5598;48.648;8.908;2023-04-03T04:49:40;2.60;99.90
11089;DHT22;5598;48.648;8.908;2023-04-03T04:52:07;2.60;99.90
11089;DHT22;5598;48.648;8.908;2023-04-03T04:54:33;2.60;99.90
11089;DHT22;5598;48.648;8.908;2023-04-03T04:57:00;2.60;99.90
11089;DHT22;5598;48.648;8.908;2023-04-03T04:59:28;2.60;99.90
11089;DHT22;5598;48.648;8.908;2023-04-03T05:01:55;2.60;99.90
11089;DHT22;5598;48.648;8.908;2023-04-03T05:04:22;2.60;99.90
11089;DHT22;5598;48.648;8.908;2023-04-03T05:06:49;2.60;99.90
11089;DHT22;5598;48.648;8.908;2023-04-03T05:09:16;2.60;99.90
11089;DHT22;5598;48.648;8.908;2023-04-03T05:11:43;2.60;99.90
11089;DHT22;5598;48.648;8.908;2023-04-03T05:14:10;2.60;99.90
11089;DHT22;5598;48.648;8.908;2023-04-03T05:16:39;2.70;99.90
11089;DHT22;5598;48.648;8.908;2023-04-03T05:19:05;2.70;99.90
11089;DHT22;5598;48.648;8.908;2023-04-03T05:21:32;2.70;99.90
11089;DHT22;5598;48.648;8.908;2023-04-03T05:24:00;2.70;99.90
11089;DHT22;5598;48.648;8.908;2023-04-03T05:26:28;2.70;99.90
11089;DHT22;5598;48.648;8.908;2023-04-03T05:28:55;2.70;99.90
11089;DHT22;5598;48.648;8.908;2023-04-03T05:31:22;2.70;99.90
11089;DHT22;5598;48.648;8.908;2023-04-03T05:33:50;2.80;99.90
11089;DHT22;5598;48.648;8.908;2023-04-03T05:36:17;2.80;99.90
11089;DHT22;5598;48.648;8.908;2023-04-03T05:38:44;2.80;99.90
11089;DHT22;5598;48.648;8.908;2023-04-03T05:41:11;2.90;99.90
11089;DHT22;5598;48.648;8.908;2023-04-03T05:43:38;2.90;99.90
11089;DHT22;5598;48.648;8.908;2023-04-03T05:46:09;2.90;99.90
11089;DHT22;5598;48.648;8.908;2023-04-03T05:48:36;2.90;99.90
11089;DHT22;5598;48.648;8.908;2023-04-03T05:51:06;2.90;99.90
11089;DHT22;5598;48.648;8.908;2023-04-03T05:53:35;3.00;99.90
11089;DHT22;5598;48.648;8.908;2023-04-03T05:56:02;3.10;99.90
11089;DHT22;5598;48.648;8.908;2023-04-03T05:58:29;3.00;99.90
11089;DHT22;5598;48.648;8.908;2023-04-03T06:00:56;3.00;99.90
11089;DHT22;5598;48.648;8.908;2023-04-03T06:03:23;3.10;99.90
11089;DHT22;5598;48.648;8.908;2023-04-03T06:05:50;3.10;99.90
11089;DHT22;5598;48.648;8.908;2023-04-03T06:08:18;3.20;99.90
11089;DHT22;5598;48.648;8.908;2023-04-03T06:10:45;3.30;99.90
11089;DHT22;5598;48.648;8.908;2023-04-03T06:13:12;3.30;99.90
11089;DHT22;5598;48.648;8.908;2023-04-03T06:15:39;3.30;99.90
11089;DHT22;5598;48.648;8.908;2023-04-03T06:18:06;3.20;99.90
11089;DHT22;5598;48.648;8.908;2023-04-03T06:20:33;3.20;99.90
11089;DHT22;5598;48.648;8.908;2023-04-03T06:23:00;3.20;99.90
11089;DHT22;5598;48.648;8.908;2023-04-03T06:25:29;3.20;99.90
11089;DHT22;5598;48.648;8.908;2023-04-03T06:27:57;3.20;99.90
11089;DHT22;5598;48.648;8.908;2023-04-03T06:30:24;3.20;99.90
11089;DHT22;5598;48.648;8.908;2023-04-03T06:32:51;3.20;99.90
11089;DHT22;5598;48.648;8.908;2023-04-03T06:35:17;3.30;99.90
11089;DHT22;5598;48.648;8.908;2023-04-03T06:37:44;3.30;99.90
11089;DHT22;5598;48.648;8.908;2023-04-03T06:40:15;3.40;99.90
11089;DHT22;5598;48.648;8.908;2023-04-03T06:42:46;3.40;99.90
11089;DHT22;5598;48.648;8.908;2023-04-03T06:45:12;3.50;99.90
11089;DHT22;5598;48.648;8.908;2023-04-03T06:47:39;3.50;99.90
11089;DHT22;5598;48.648;8.908;2023-04-03T06:50:07;3.50;99.90
11089;DHT22;5598;48.648;8.908;2023-04-03T06:52:34;3.50;99.90
11089;DHT22;5598;48.648;8.908;2023-04-03T06:55:01;3.50;99.90
11089;DHT22;5598;48.648;8.908;2023-04-03T06:57:28;3.60;99.90
11089;DHT22;5598;48.648;8.908;2023-04-03T06:59:56;3.70;99.90
11089;DHT22;5598;48.648;8.908;2023-04-03T07:02:23;3.70;99.90
11089;DHT22;5598;48.648;8.908;2023-04-03T07:04:49;3.80;99.90
11089;DHT22;5598;48.648;8.908;2023-04-03T07:07:16;3.90;99.90
11089;DHT22;5598;48.648;8.908;2023-04-03T07:09:43;3.90;99.90
11089;DHT22;5598;48.648;8.908;2023-04-03T07:12:12;3.90;99.90
11089;DHT22;5598;48.648;8.908;2023-04-03T07:14:39;4.10;99.90
11089;DHT22;5598;48.648;8.908;2023-04-03T07:17:08;4.90;99.90
11089;DHT22;5598;48.648;8.908;2023-04-03T07:19:35;5.20;99.90
11089;DHT22;5598;48.648;8.908;2023-04-03T07:22:02;5.20;99.90
11089;DHT22;5598;48.648;8.908;2023-04-03T07:24:28;5.20;99.90
11089;DHT22;5598;48.648;8.908;2023-04-03T07:26:55;5.20;99.90
11089;DHT22;5598;48.648;8.908;2023-04-03T07:29:22;5.10;99.90
11089;DHT22;5598;48.648;8.908;2023-04-03T07:31:49;5.10;99.90
11089;DHT22;5598;48.648;8.908;2023-04-03T07:34:17;5.00;99.90
11089;DHT22;5598;48.648;8.908;2023-04-03T07:36:44;5.00;99.90
11089;DHT22;5598;48.648;8.908;2023-04-03T07:39:11;5.10;99.90
11089;DHT22;5598;48.648;8.908;2023-04-03T07:41:37;5.00;99.90
11089;DHT22;5598;48.648;8.908;2023-04-03T07:44:05;5.10;99.90
11089;DHT22;5598;48.648;8.908;2023-04-03T07:46:32;5.30;99.90
11089;DHT22;5598;48.648;8.908;2023-04-03T07:48:59;5.50;99.90
11089;DHT22;5598;48.648;8.908;2023-04-03T07:51:27;5.70;99.90
11089;DHT22;5598;48.648;8.908;2023-04-03T07:53:56;5.80;99.90
11089;DHT22;5598;48.648;8.908;2023-04-03T07:56:23;6.10;99.90
11089;DHT22;5598;48.648;8.908;2023-04-03T07:58:50;6.20;99.90
11089;DHT22;5598;48.648;8.908;2023-04-03T08:01:17;6.20;99.90
11089;DHT22;5598;48.648;8.908;2023-04-03T08:03:44;6.20;99.90
11089;DHT22;5598;48.648;8.908;2023-04-03T08:06:10;6.20;99.90
11089;DHT22;5598;48.648;8.908;2023-04-03T08:08:40;6.20;99.90
11089;DHT22;5598;48.648;8.908;2023-04-03T08:11:07;6.30;99.90
11089;DHT22;5598;48.648;8.908;2023-04-03T08:13:34;6.50;99.90
11089;DHT22;5598;48.648;8.908;2023-04-03T08:16:08;6.70;99.90
11089;DHT22;5598;48.648;8.908;2023-04-03T08:18:34;6.80;99.90
11089;DHT22;5598;48.648;8.908;2023-04-03T08:21:05;6.90;99.90
11089;DHT22;5598;48.648;8.908;2023-04-03T08:23:32;7.00;99.90
11089;DHT22;5598;48.648;8.908;2023-04-03T08:26:06;7.00;99.90
11089;DHT22;5598;48.648;8.908;2023-04-03T08:28:33;7.00;99.90
11089;DHT22;5598;48.648;8.908;2023-04-03T08:31:03;6.90;99.90
11089;DHT22;5598;48.648;8.908;2023-04-03T08:33:31;6.80;99.20
11089;DHT22;5598;48.648;8.908;2023-04-03T08:35:59;6.70;99.90
11089;DHT22;5598;48.648;8.908;2023-04-03T08:38:26;6.60;99.90
11089;DHT22;5598;48.648;8.908;2023-04-03T08:41:04;6.50;99.90
11089;DHT22;5598;48.648;8.908;2023-04-03T08:43:38;6.50;99.90
11089;DHT22;5598;48.648;8.908;2023-04-03T08:46:13;6.60;99.90
11089;DHT22;5598;48.648;8.908;2023-04-03T08:48:42;6.60;99.90
11089;DHT22;5598;48.648;8.908;2023-04-03T08:51:12;6.70;99.90
11089;DHT22;5598;48.648;8.908;2023-04-03T08:53:43;6.80;99.90
11089;DHT22;5598;48.648;8.908;2023-04-03T08:56:14;6.80;99.90
11089;DHT22;5598;48.648;8.908;2023-04-03T08:58:47;6.80;99.90
11089;DHT22;5598;48.648;8.908;2023-04-03T09:01:19;6.90;99.90
11089;DHT22;5598;48.648;8.908;2023-04-03T09:03:46;7.00;99.90
11089;DHT22;5598;48.648;8.908;2023-04-03T09:06:15;6.90;99.90
11089;DHT22;5598;48.648;8.908;2023-04-03T09:08:46;6.80;99.90
11089;DHT22;5598;48.648;8.908;2023-04-03T09:11:23;6.70;99.90
11089;DHT22;5598;48.648;8.908;2023-04-03T09:13:57;6.70;99.80
11089;DHT22;5598;48.648;8.908;2023-04-03T09:16:39;6.60;99.90
11089;DHT22;5598;48.648;8.908;2023-04-03T09:19:18;6.70;99.70
11089;DHT22;5598;48.648;8.908;2023-04-03T09:21:46;6.90;99.90
11089;DHT22;5598;48.648;8.908;2023-04-03T09:24:15;7.00;98.70
11089;DHT22;5598;48.648;8.908;2023-04-03T09:26:48;6.90;99.60
11089;DHT22;5598;48.648;8.908;2023-04-03T09:29:19;6.70;99.90
11089;DHT22;5598;48.648;8.908;2023-04-03T09:31:50;6.90;99.90
11089;DHT22;5598;48.648;8.908;2023-04-03T09:34:20;6.90;98.70
11089;DHT22;5598;48.648;8.908;2023-04-03T09:36:50;6.70;98.20
11089;DHT22;5598;48.648;8.908;2023-04-03T09:39:19;6.70;98.90
11089;DHT22;5598;48.648;8.908;2023-04-03T09:42:00;6.60;99.00
11089;DHT22;5598;48.648;8.908;2023-04-03T09:44:30;6.60;98.70
11089;DHT22;5598;48.648;8.908;2023-04-03T09:46:58;6.60;99.10
11089;DHT22;5598;48.648;8.908;2023-04-03T09:49:25;6.70;98.80
11089;DHT22;5598;48.648;8.908;2023-04-03T09:51:52;6.70;98.60
11089;DHT22;5598;48.648;8.908;2023-04-03T09:54:31;6.60;98.60
11089;DHT22;5598;48.648;8.908;2023-04-03T09:57:04;6.60;97.90
11089;DHT22;5598;48.648;8.908;2023-04-03T09:59:32;6.50;97.70
11089;DHT22;5598;48.648;8.908;2023-04-03T10:02:02;6.40;97.20
11089;DHT22;5598;48.648;8.908;2023-04-03T10:04:38;6.40;97.90
11089;DHT22;5598;48.648;8.908;2023-04-03T10:07:26;6.40;97.70
11089;DHT22;5598;48.648;8.908;2023-04-03T10:09:55;6.30;97.10
11089;DHT22;5598;48.648;8.908;2023-04-03T10:12:24;6.20;97.30
11089;DHT22;5598;48.648;8.908;2023-04-03T10:14:55;6.10;97.60
11089;DHT22;5598;48.648;8.908;2023-04-03T10:17:29;5.90;97.80
11089;DHT22;5598;48.648;8.908;2023-04-03T10:20:03;5.90;97.70
11089;DHT22;5598;48.648;8.908;2023-04-03T10:22:40;5.80;97.90
11089;DHT22;5598;48.648;8.908;2023-04-03T10:25:15;5.90;97.20
11089;DHT22;5598;48.648;8.908;2023-04-03T10:27:52;5.90;96.90
11089;DHT22;5598;48.648;8.908;2023-04-03T10:30:36;6.00;96.70
11089;DHT22;5598;48.648;8.908;2023-04-03T10:33:20;6.00;96.90
11089;DHT22;5598;48.648;8.908;2023-04-03T10:35:59;6.10;96.10
11089;DHT22;5598;48.648;8.908;2023-04-03T10:38:33;6.20;95.90
11089;DHT22;5598;48.648;8.908;2023-04-03T10:41:11;6.30;96.50
11089;DHT22;5598;48.648;8.908;2023-04-03T10:43:43;6.50;96.60
11089;DHT22;5598;48.648;8.908;2023-04-03T10:46:16;6.60;97.60
11089;DHT22;5598;48.648;8.908;2023-04-03T10:49:03;6.60;97.80
11089;DHT22;5598;48.648;8.908;2023-04-03T10:51:37;6.70;97.30
11089;DHT22;5598;48.648;8.908;2023-04-03T10:54:08;6.80;97.80
11089;DHT22;5598;48.648;8.908;2023-04-03T10:56:40;6.90;97.80
11089;DHT22;5598;48.648;8.908;2023-04-03T10:59:17;7.10;97.50
11089;DHT22;5598;48.648;8.908;2023-04-03T11:01:48;7.10;97.10
11089;DHT22;5598;48.648;8.908;2023-04-03T11:04:18;7.00;97.00
11089;DHT22;5598;48.648;8.908;2023-04-03T11:06:50;7.10;97.50
11089;DHT22;5598;48.648;8.908;2023-04-03T11:09:22;7.10;96.20
11089;DHT22;5598;48.648;8.908;2023-04-03T11:11:53;7.00;95.80
11089;DHT22;5598;48.648;8.908;2023-04-03T11:14:26;6.90;96.20
11089;DHT22;5598;48.648;8.908;2023-04-03T11:17:11;7.00;96.90
11089;DHT22;5598;48.648;8.908;2023-04-03T11:19:46;7.20;96.80
11089;DHT22;5598;48.648;8.908;2023-04-03T11:22:22;7.50;96.90
11089;DHT22;5598;48.648;8.908;2023-04-03T11:24:57;7.80;96.20
11089;DHT22;5598;48.648;8.908;2023-04-03T11:27:27;7.80;96.40
11089;DHT22;5598;48.648;8.908;2023-04-03T11:29:59;8.10;97.10
11089;DHT22;5598;48.648;8.908;2023-04-03T11:32:55;8.70;96.90
11089;DHT22;5598;48.648;8.908;2023-04-03T11:35:24;9.40;96.30
11089;DHT22;5598;48.648;8.908;2023-04-03T11:37:52;9.70;95.50
11089;DHT22;5598;48.648;8.908;2023-04-03T11:40:23;9.60;91.60
11089;DHT22;5598;48.648;8.908;2023-04-03T11:43:02;9.50;91.40
11089;DHT22;5598;48.648;8.908;2023-04-03T11:45:37;9.50;93.20
11089;DHT22;5598;48.648;8.908;2023-04-03T11:48:06;9.20;91.20
11089;DHT22;5598;48.648;8.908;2023-04-03T11:50:52;8.90;91.30
11089;DHT22;5598;48.648;8.908;2023-04-03T11:53:28;8.70;92.90
11089;DHT22;5598;48.648;8.908;2023-04-03T11:55:58;8.50;94.30
11089;DHT22;5598;48.648;8.908;2023-04-03T11:58:27;8.20;92.60
11089;DHT22;5598;48.648;8.908;2023-04-03T12:01:00;8.00;91.80
11089;DHT22;5598;48.648;8.908;2023-04-03T12:10:18;7.60;94.50
11089;DHT22;5598;48.648;8.908;2023-04-03T12:12:57;7.60;94.70
11089;DHT22;5598;48.648;8.908;2023-04-03T12:18:57;7.40;92.70
11089;DHT22;5598;48.648;8.908;2023-04-03T12:24:33;7.30;92.10
11089;DHT22;5598;48.648;8.908;2023-04-03T12:27:15;7.20;92.70
11089;DHT22;5598;48.648;8.908;2023-04-03T12:29:50;7.10;93.80
11089;DHT22;5598;48.648;8.908;2023-04-03T12:32:34;7.00;94.20
11089;DHT22;5598;48.648;8.908;2023-04-03T12:35:14;7.00;93.00
11089;DHT22;5598;48.648;8.908;2023-04-03T12:38:14;7.10;94.50
11089;DHT22;5598;48.648;8.908;2023-04-03T12:40:50;7.40;94.20
11089;DHT22;5598;48.648;8.908;2023-04-03T12:43:39;7.50;93.00
11089;DHT22;5598;48.648;8.908;2023-04-03T12:46:13;7.70;94.20
11089;DHT22;5598;48.648;8.908;2023-04-03T12:48:48;7.70;93.10
11089;DHT22;5598;48.648;8.908;2023-04-03T12:51:19;7.60;92.10
11089;DHT22;5598;48.648;8.908;2023-04-03T12:53:49;7.60;93.40
11089;DHT22;5598;48.648;8.908;2023-04-03T12:56:21;7.50;93.30
11089;DHT22;5598;48.648;8.908;2023-04-03T12:58:49;7.40;92.80
11089;DHT22;5598;48.648;8.908;2023-04-03T13:01:20;7.20;92.20
11089;DHT22;5598;48.648;8.908;2023-04-03T13:03:50;7.00;93.10
11089;DHT22;5598;48.648;8.908;2023-04-03T13:06:21;7.00;92.70
11089;DHT22;5598;48.648;8.908;2023-04-03T13:08:50;6.90;92.10
11089;DHT22;5598;48.648;8.908;2023-04-03T13:11:18;6.90;92.40
11089;DHT22;5598;48.648;8.908;2023-04-03T13:13:57;6.90;92.50
11089;DHT22;5598;48.648;8.908;2023-04-03T13:16:24;6.90;92.40
11089;DHT22;5598;48.648;8.908;2023-04-03T13:18:53;6.90;92.00
11089;DHT22;5598;48.648;8.908;2023-04-03T13:21:23;7.00;92.00
11089;DHT22;5598;48.648;8.908;2023-04-03T13:23:53;7.10;91.80
11089;DHT22;5598;48.648;8.908;2023-04-03T13:26:24;7.20;91.40
11089;DHT22;5598;48.648;8.908;2023-04-03T13:28:51;7.60;92.60
11089;DHT22;5598;48.648;8.908;2023-04-03T13:31:22;7.80;90.50
11089;DHT22;5598;48.648;8.908;2023-04-03T13:33:55;7.90;89.30
11089;DHT22;5598;48.648;8.908;2023-04-03T13:36:27;8.00;91.10
11089;DHT22;5598;48.648;8.908;2023-04-03T13:39:02;8.00;91.90
11089;DHT22;5598;48.648;8.908;2023-04-03T13:41:31;7.90;91.80
11089;DHT22;5598;48.648;8.908;2023-04-03T13:47:00;7.50;92.40
11089;DHT22;5598;48.648;8.908;2023-04-03T13:49:43;7.50;92.20
11089;DHT22;5598;48.648;8.908;2023-04-03T13:52:27;7.50;92.60
11089;DHT22;5598;48.648;8.908;2023-04-03T13:54:56;7.50;92.50
11089;DHT22;5598;48.648;8.908;2023-04-03T13:57:24;7.60;91.80
11089;DHT22;5598;48.648;8.908;2023-04-03T13:59:51;7.70;92.10
11089;DHT22;5598;48.648;8.908;2023-04-03T14:02:21;7.70;91.80
11089;DHT22;5598;48.648;8.908;2023-04-03T14:04:52;7.80;91.40
11089;DHT22;5598;48.648;8.908;2023-04-03T14:07:23;7.90;91.10
11089;DHT22;5598;48.648;8.908;2023-04-03T14:09:50;8.10;90.90
11089;DHT22;5598;48.648;8.908;2023-04-03T14:12:20;8.30;90.80
11089;DHT22;5598;48.648;8.908;2023-04-03T14:14:48;8.30;89.30
11089;DHT22;5598;48.648;8.908;2023-04-03T14:17:17;8.20;89.40
11089;DHT22;5598;48.648;8.908;2023-04-03T14:19:45;7.90;86.70
11089;DHT22;5598;48.648;8.908;2023-04-03T14:22:15;7.80;90.00
11089;DHT22;5598;48.648;8.908;2023-04-03T14:24:44;7.60;90.20
11089;DHT22;5598;48.648;8.908;2023-04-03T14:27:16;7.50;90.20
11089;DHT22;5598;48.648;8.908;2023-04-03T14:29:44;7.40;90.60
11089;DHT22;5598;48.648;8.908;2023-04-03T14:32:12;7.30;91.60
11089;DHT22;5598;48.648;8.908;2023-04-03T14:34:39;7.20;89.30
11089;DHT22;5598;48.648;8.908;2023-04-03T14:37:10;7.10;90.40
11089;DHT22;5598;48.648;8.908;2023-04-03T14:39:37;7.10;89.10
11089;DHT22;5598;48.648;8.908;2023-04-03T14:42:06;7.10;90.00
11089;DHT22;5598;48.648;8.908;2023-04-03T14:44:33;7.10;90.70
11089;DHT22;5598;48.648;8.908;2023-04-03T14:47:00;7.20;87.90
11089;DHT22;5598;48.648;8.908;2023-04-03T14:49:28;7.20;88.80
11089;DHT22;5598;48.648;8.908;2023-04-03T14:51:55;7.20;87.70
11089;DHT22;5598;48.648;8.908;2023-04-03T14:54:23;7.30;90.10
11089;DHT22;5598;48.648;8.908;2023-04-03T14:56:53;7.20;86.70
11089;DHT22;5598;48.648;8.908;2023-04-03T14:59:22;7.30;86.50
11089;DHT22;5598;48.648;8.908;2023-04-03T15:01:49;7.20;86.80
11089;DHT22;5598;48.648;8.908;2023-04-03T15:04:17;7.10;87.60
11089;DHT22;5598;48.648;8.908;2023-04-03T15:06:45;7.10;88.80
11089;DHT22;5598;48.648;8.908;2023-04-03T15:09:19;7.00;90.30
11089;DHT22;5598;48.648;8.908;2023-04-03T15:11:46;7.00;90.10
11089;DHT22;5598;48.648;8.908;2023-04-03T15:14:13;7.00;90.50
11089;DHT22;5598;48.648;8.908;2023-04-03T15:16:41;6.90;90.20
11089;DHT22;5598;48.648;8.908;2023-04-03T15:19:08;6.80;89.90
11089;DHT22;5598;48.648;8.908;2023-04-03T15:21:36;6.90;91.60
11089;DHT22;5598;48.648;8.908;2023-04-03T15:24:03;7.00;91.00
11089;DHT22;5598;48.648;8.908;2023-04-03T15:26:30;7.00;90.30
11089;DHT22;5598;48.648;8.908;2023-04-03T15:28:58;7.00;90.90
11089;DHT22;5598;48.648;8.908;2023-04-03T15:31:25;6.90;90.90
11089;DHT22;5598;48.648;8.908;2023-04-03T15:33:53;6.80;91.00
11089;DHT22;5598;48.648;8.908;2023-04-03T15:36:20;6.70;90.50
11089;DHT22;5598;48.648;8.908;2023-04-03T15:38:46;6.80;91.60
11089;DHT22;5598;48.648;8.908;2023-04-03T15:41:13;6.80;91.20
11089;DHT22;5598;48.648;8.908;2023-04-03T15:43:40;6.90;90.20
11089;DHT22;5598;48.648;8.908;2023-04-03T15:46:07;7.20;91.20
11089;DHT22;5598;48.648;8.908;2023-04-03T15:48:34;7.40;90.30
11089;DHT22;5598;48.648;8.908;2023-04-03T15:51:03;7.50;88.50
11089;DHT22;5598;48.648;8.908;2023-04-03T15:53:31;7.50;89.50
11089;DHT22;5598;48.648;8.908;2023-04-03T15:55:58;7.30;89.20
11089;DHT22;5598;48.648;8.908;2023-04-03T15:58:25;7.20;89.20
11089;DHT22;5598;48.648;8.908;2023-04-03T16:00:52;7.00;86.00
11089;DHT22;5598;48.648;8.908;2023-04-03T16:03:20;6.90;87.60
11089;DHT22;5598;48.648;8.908;2023-04-03T16:05:48;6.90;88.60
11089;DHT22;5598;48.648;8.908;2023-04-03T16:08:16;6.90;88.40
11089;DHT22;5598;48.648;8.908;2023-04-03T16:10:43;6.80;88.90
11089;DHT22;5598;48.648;8.908;2023-04-03T16:13:12;6.80;88.30
11089;DHT22;5598;48.648;8.908;2023-04-03T16:15:39;6.80;88.30
11089;DHT22;5598;48.648;8.908;2023-04-03T16:18:08;6.70;87.10
11089;DHT22;5598;48.648;8.908;2023-04-03T16:20:35;6.70;87.70
11089;DHT22;5598;48.648;8.908;2023-04-03T16:23:02;6.70;88.10
11089;DHT22;5598;48.648;8.908;2023-04-03T16:25:30;6.70;90.60
11089;DHT22;5598;48.648;8.908;2023-04-03T16:27:57;6.60;87.60
11089;DHT22;5598;48.648;8.908;2023-04-03T16:30:24;6.60;86.20
11089;DHT22;5598;48.648;8.908;2023-04-03T16:32:51;6.50;85.10